sensor_id;sensor_type;location;lat;lon;timestamp;temperature;humidity
37788;DHT22;23627;53.302;-6.362;2023-04-24T00:00:02;10.40;99.90
37788;DHT22;23627;53.302;-6.362;2023-04-24T00:02:31;10.40;99.90
37788;DHT22;23627;53.302;-6.362;2023-04-24T00:04:58;10.40;99.90
37788;DHT22;23627;53.302;-6.362;2023-04-24T00:07:28;10.40;99.90
37788;DHT22;23627;53.302;-6.362;2023-04-24T00:09:54;10.30;99.90
37788;DHT22;23627;53.302;-6.362;2023-04-24T00:12:20;10.30;99.90
37788;DHT22;23627;53.302;-6.362;2023-04-24T00:14:46;10.30;99.90
37788;DHT22;23627;53.302;-6.362;2023-04-24T00:17:12;10.30;99.90
37788;DHT22;23627;53.302;-6.362;2023-04-24T00:19:38;10.30;99.90
37788;DHT22;23627;53.302;-6.362;2023-04-24T00:22:03;10.30;99.90
37788;DHT22;23627;53.302;-6.362;2023-04-24T00:24:29;10.30;99.90
37788;DHT22;23627;53.302;-6.362;2023-04-24T00:26:55;10.30;99.90
37788;DHT22;23627;53.302;-6.362;2023-04-24T00:29:21;10.20;99.90
37788;DHT22;23627;53.302;-6.362;2023-04-24T00:31:46;10.20;99.90
37788;DHT22;23627;53.302;-6.362;2023-04-24T00:34:12;10.20;99.90
37788;DHT22;23627;53.302;-6.362;2023-04-24T00:36:38;10.20;99.90
37788;DHT22;23627;53.302;-6.362;2023-04-24T00:39:03;10.20;99.90
37788;DHT22;23627;53.302;-6.362;2023-04-24T00:41:30;10.10;99.90
37788;DHT22;23627;53.302;-6.362;2023-04-24T00:43:55;10.20;99.90
37788;DHT22;23627;53.302;-6.362;2023-04-24T00:46:22;10.10;99.90
37788;DHT22;23627;53.302;-6.362;2023-04-24T00:48:47;10.10;99.90
37788;DHT22;23627;53.302;-6.362;2023-04-24T00:51:13;10.10;99.90
37788;DHT22;23627;53.302;-6.362;2023-04-24T00:53:39;10.10;99.90
37788;DHT22;23627;53.302;-6.362;2023-04-24T00:56:05;10.10;99.90
37788;DHT22;23627;53.302;-6.362;2023-04-24T00:58:30;10.00;99.90
37788;DHT22;23627;53.302;-6.362;2023-04-24T01:00:58;10.00;99.90
37788;DHT22;23627;53.302;-6.362;2023-04-24T01:03:29;10.00;99.90
37788;DHT22;23627;53.302;-6.362;2023-04-24T01:05:55;10.00;99.90
37788;DHT22;23627;53.302;-6.362;2023-04-24T01:08:24;10.00;99.90
37788;DHT22;23627;53.302;-6.362;2023-04-24T01:10:51;9.90;99.90
37788;DHT22;23627;53.302;-6.362;2023-04-24T01:13:20;9.90;99.90
37788;DHT22;23627;53.302;-6.362;2023-04-24T01:15:47;9.90;99.90
37788;DHT22;23627;53.302;-6.362;2023-04-24T01:18:13;9.90;99.90
37788;DHT22;23627;53.302;-6.362;2023-04-24T01:20:40;9.90;99.90
37788;DHT22;23627;53.302;-6.362;2023-04-24T01:23:08;9.90;99.90
37788;DHT22;23627;53.302;-6.362;2023-04-24T01:25:34;9.90;99.90
37788;DHT22;23627;53.302;-6.362;2023-04-24T01:28:00;9.80;99.90
37788;DHT22;23627;53.302;-6.362;2023-04-24T01:30:30;9.80;99.90
37788;DHT22;23627;53.302;-6.362;2023-04-24T01:32:56;9.80;99.90
37788;DHT22;23627;53.302;-6.362;2023-04-24T01:35:24;9.80;99.90
37788;DHT22;23627;53.302;-6.362;2023-04-24T01:37:50;9.80;99.90
37788;DHT22;23627;53.302;-6.362;2023-04-24T01:40:16;9.80;99.90
37788;DHT22;23627;53.302;-6.362;2023-04-24T01:42:41;9.70;99.90
37788;DHT22;23627;53.302;-6.362;2023-04-24T01:45:10;9.70;99.90
37788;DHT22;23627;53.302;-6.362;2023-04-24T01:47:36;9.70;99.90
37788;DHT22;23627;53.302;-6.362;2023-04-24T01:50:04;9.70;99.90
37788;DHT22;23627;53.302;-6.362;2023-04-24T01:52:30;9.70;99.90
37788;DHT22;23627;53.302;-6.362;2023-04-24T01:55:00;9.70;99.90
37788;DHT22;23627;53.302;-6.362;2023-04-24T01:57:26;9.70;99.90
37788;DHT22;23627;53.302;-6.362;2023-04-24T01:59:51;9.70;99.90
37788;DHT22;23627;53.302;-6.362;2023-04-24T02:02:17;9.70;99.90
37788;DHT22;23627;53.302;-6.362;2023-04-24T02:04:43;9.60;99.90
37788;DHT22;23627;53.302;-6.362;2023-04-24T02:07:09;9.60;99.90
37788;DHT22;23627;53.302;-6.362;2023-04-24T02:09:34;9.60;99.90
37788;DHT22;23627;53.302;-6.362;2023-04-24T02:12:00;9.70;99.90
37788;DHT22;23627;53.302;-6.362;2023-04-24T02:14:26;9.60;99.90
37788;DHT22;23627;53.302;-6.362;2023-04-24T02:16:52;9.60;99.90
37788;DHT22;23627;53.302;-6.362;2023-04-24T02:19:18;9.70;99.90
37788;DHT22;23627;53.302;-6.362;2023-04-24T02:21:45;9.60;99.90
37788;DHT22;23627;53.302;-6.362;2023-04-24T02:24:10;9.60;99.90
37788;DHT22;23627;53.302;-6.362;2023-04-24T02:26:36;9.60;99.90
37788;DHT22;23627;53.302;-6.362;2023-04-24T02:29:02;9.60;99.90
37788;DHT22;23627;53.302;-6.362;2023-04-24T02:31:27;9.60;99.90
37788;DHT22;23627;53.302;-6.362;2023-04-24T02:33:53;9.60;99.90
37788;DHT22;23627;53.302;-6.362;2023-04-24T02:36:19;9.60;99.90
37788;DHT22;23627;53.302;-6.362;2023-04-24T02:38:45;9.60;99.90
37788;DHT22;23627;53.302;-6.362;2023-04-24T02:41:10;9.60;99.90
37788;DHT22;23627;53.302;-6.362;2023-04-24T02:43:36;9.60;99.90
37788;DHT22;23627;53.302;-6.362;2023-04-24T02:46:02;9.60;99.90
37788;DHT22;23627;53.302;-6.362;2023-04-24T02:48:28;9.60;99.90
37788;DHT22;23627;53.302;-6.362;2023-04-24T02:50:54;9.60;99.90
37788;DHT22;23627;53.302;-6.362;2023-04-24T02:53:19;9.60;99.90
37788;DHT22;23627;53.302;-6.362;2023-04-24T02:55:45;9.60;99.90
37788;DHT22;23627;53.302;-6.362;2023-04-24T02:58:11;9.60;99.90
37788;DHT22;23627;53.302;-6.362;2023-04-24T03:00:38;9.60;99.90
37788;DHT22;23627;53.302;-6.362;2023-04-24T03:03:05;9.60;99.90
37788;DHT22;23627;53.302;-6.362;2023-04-24T03:05:31;9.60;99.90
37788;DHT22;23627;53.302;-6.362;2023-04-24T03:07:56;9.60;99.90
37788;DHT22;23627;53.302;-6.362;2023-04-24T03:10:22;9.60;99.90
37788;DHT22;23627;53.302;-6.362;2023-04-24T03:12:48;9.60;99.90
37788;DHT22;23627;53.302;-6.362;2023-04-24T03:15:14;9.60;99.90
37788;DHT22;23627;53.302;-6.362;2023-04-24T03:17:40;9.60;99.90
37788;DHT22;23627;53.302;-6.362;2023-04-24T03:20:07;9.60;99.90
37788;DHT22;23627;53.302;-6.362;2023-04-24T03:22:34;9.60;99.90
37788;DHT22;23627;53.302;-6.362;2023-04-24T03:25:00;9.60;99.90
37788;DHT22;23627;53.302;-6.362;2023-04-24T03:27:26;9.60;99.90
37788;DHT22;23627;53.302;-6.362;2023-04-24T03:29:52;9.60;99.90
37788;DHT22;23627;53.302;-6.362;2023-04-24T03:32:21;9.60;99.90
37788;DHT22;23627;53.302;-6.362;2023-04-24T03:34:48;9.60;99.90
37788;DHT22;23627;53.302;-6.362;2023-04-24T03:37:14;9.60;99.90
37788;DHT22;23627;53.302;-6.362;2023-04-24T03:39:40;9.60;99.90
37788;DHT22;23627;53.302;-6.362;2023-04-24T03:42:06;9.60;99.90
37788;DHT22;23627;53.302;-6.362;2023-04-24T03:44:31;9.60;99.90
37788;DHT22;23627;53.302;-6.362;2023-04-24T03:46:58;9.60;99.90
37788;DHT22;23627;53.302;-6.362;2023-04-24T03:49:24;9.60;99.90
37788;DHT22;23627;53.302;-6.362;2023-04-24T03:51:50;9.60;99.90
37788;DHT22;23627;53.302;-6.362;2023-04-24T03:54:16;9.60;99.90
37788;DHT22;23627;53.302;-6.362;2023-04-24T03:56:41;9.60;99.90
37788;DHT22;23627;53.302;-6.362;2023-04-24T03:59:07;9.60;99.90
37788;DHT22;23627;53.302;-6.362;2023-04-24T04:01:33;9.60;99.90
37788;DHT22;23627;53.302;-6.362;2023-04-24T04:04:02;9.60;99.90
37788;DHT22;23627;53.302;-6.362;2023-04-24T04:06:28;9.60;99.90
37788;DHT22;23627;53.302;-6.362;2023-04-24T04:08:54;9.60;99.90
37788;DHT22;23627;53.302;-6.362;2023-04-24T04:11:19;9.60;99.90
37788;DHT22;23627;53.302;-6.362;2023-04-24T04:13:45;9.60;99.90
37788;DHT22;23627;53.302;-6.362;2023-04-24T04:16:13;9.60;99.90
37788;DHT22;23627;53.302;-6.362;2023-04-24T04:18:39;9.60;99.90
37788;DHT22;23627;53.302;-6.362;2023-04-24T04:21:05;9.60;99.90
37788;DHT22;23627;53.302;-6.362;2023-04-24T04:23:30;9.60;99.90
37788;DHT22;23627;53.302;-6.362;2023-04-24T04:25:57;9.50;99.90
37788;DHT22;23627;53.302;-6.362;2023-04-24T04:28:23;9.50;99.90
37788;DHT22;23627;53.302;-6.362;2023-04-24T04:30:50;9.50;99.90
37788;DHT22;23627;53.302;-6.362;2023-04-24T04:33:20;9.50;99.90
37788;DHT22;23627;53.302;-6.362;2023-04-24T04:35:46;9.50;99.90
37788;DHT22;23627;53.302;-6.362;2023-04-24T04:38:14;9.40;99.90
37788;DHT22;23627;53.302;-6.362;2023-04-24T04:40:40;9.40;99.90
37788;DHT22;23627;53.302;-6.362;2023-04-24T04:43:06;9.40;99.90
37788;DHT22;23627;53.302;-6.362;2023-04-24T04:45:32;9.40;99.90
37788;DHT22;23627;53.302;-6.362;2023-04-24T04:48:00;9.40;99.90
37788;DHT22;23627;53.302;-6.362;2023-04-24T04:50:27;9.30;99.90
37788;DHT22;23627;53.302;-6.362;2023-04-24T04:52:53;9.40;99.90
37788;DHT22;23627;53.302;-6.362;2023-04-24T04:55:19;9.30;99.90
37788;DHT22;23627;53.302;-6.362;2023-04-24T04:57:47;9.30;99.90
37788;DHT22;23627;53.302;-6.362;2023-04-24T05:00:13;9.30;99.90
37788;DHT22;23627;53.302;-6.362;2023-04-24T05:02:39;9.20;99.90
37788;DHT22;23627;53.302;-6.362;2023-04-24T05:05:06;9.20;99.90
37788;DHT22;23627;53.302;-6.362;2023-04-24T05:07:32;9.10;99.90
37788;DHT22;23627;53.302;-6.362;2023-04-24T05:09:57;9.00;99.90
37788;DHT22;23627;53.302;-6.362;2023-04-24T05:12:23;9.00;99.90
37788;DHT22;23627;53.302;-6.362;2023-04-24T05:14:49;8.90;99.90
37788;DHT22;23627;53.302;-6.362;2023-04-24T05:17:15;8.90;99.90
37788;DHT22;23627;53.302;-6.362;2023-04-24T05:19:41;8.90;99.90
37788;DHT22;23627;53.302;-6.362;2023-04-24T05:22:08;8.90;99.90
37788;DHT22;23627;53.302;-6.362;2023-04-24T05:24:35;8.90;99.90
37788;DHT22;23627;53.302;-6.362;2023-04-24T05:27:02;8.80;99.90
37788;DHT22;23627;53.302;-6.362;2023-04-24T05:29:28;8.80;99.90
37788;DHT22;23627;53.302;-6.362;2023-04-24T05:31:56;8.80;99.90
37788;DHT22;23627;53.302;-6.362;2023-04-24T05:34:22;8.80;99.90
37788;DHT22;23627;53.302;-6.362;2023-04-24T05:36:48;8.80;99.90
37788;DHT22;23627;53.302;-6.362;2023-04-24T05:39:14;8.80;99.90
37788;DHT22;23627;53.302;-6.362;2023-04-24T05:41:40;8.80;99.90
37788;DHT22;23627;53.302;-6.362;2023-04-24T05:44:06;8.80;99.90
37788;DHT22;23627;53.302;-6.362;2023-04-24T05:46:32;8.80;99.90
37788;DHT22;23627;53.302;-6.362;2023-04-24T05:48:57;8.90;99.90
37788;DHT22;23627;53.302;-6.362;2023-04-24T05:51:24;8.90;99.90
37788;DHT22;23627;53.302;-6.362;2023-04-24T05:53:50;8.90;99.90
37788;DHT22;23627;53.302;-6.362;2023-04-24T05:56:16;8.90;99.90
37788;DHT22;23627;53.302;-6.362;2023-04-24T05:58:42;8.90;99.90
37788;DHT22;23627;53.302;-6.362;2023-04-24T06:01:07;8.90;99.90
37788;DHT22;23627;53.302;-6.362;2023-04-24T06:03:33;8.90;99.90
37788;DHT22;23627;53.302;-6.362;2023-04-24T06:05:59;8.90;99.90
37788;DHT22;23627;53.302;-6.362;2023-04-24T06:08:25;8.90;99.90
37788;DHT22;23627;53.302;-6.362;2023-04-24T06:10:51;8.90;99.90
37788;DHT22;23627;53.302;-6.362;2023-04-24T06:13:17;8.90;99.90
37788;DHT22;23627;53.302;-6.362;2023-04-24T06:15:43;8.90;99.90
37788;DHT22;23627;53.302;-6.362;2023-04-24T06:18:09;8.90;99.90
37788;DHT22;23627;53.302;-6.362;2023-04-24T06:20:38;8.90;99.90
37788;DHT22;23627;53.302;-6.362;2023-04-24T06:23:05;8.90;99.90
37788;DHT22;23627;53.302;-6.362;2023-04-24T06:25:30;8.90;99.90
37788;DHT22;23627;53.302;-6.362;2023-04-24T06:27:57;8.90;99.90
37788;DHT22;23627;53.302;-6.362;2023-04-24T06:30:23;8.90;99.90
37788;DHT22;23627;53.302;-6.362;2023-04-24T06:32:48;8.90;99.90
37788;DHT22;23627;53.302;-6.362;2023-04-24T06:35:14;8.90;99.90
37788;DHT22;23627;53.302;-6.362;2023-04-24T06:37:41;8.90;99.90
37788;DHT22;23627;53.302;-6.362;2023-04-24T06:40:08;8.90;99.90
37788;DHT22;23627;53.302;-6.362;2023-04-24T06:42:34;8.90;99.90
37788;DHT22;23627;53.302;-6.362;2023-04-24T06:45:03;8.80;99.90
37788;DHT22;23627;53.302;-6.362;2023-04-24T06:47:29;8.80;99.90
37788;DHT22;23627;53.302;-6.362;2023-04-24T06:49:55;8.80;99.90
37788;DHT22;23627;53.302;-6.362;2023-04-24T06:52:22;8.80;99.90
37788;DHT22;23627;53.302;-6.362;2023-04-24T06:54:48;8.70;99.90
37788;DHT22;23627;53.302;-6.362;2023-04-24T06:57:13;8.80;99.90
37788;DHT22;23627;53.302;-6.362;2023-04-24T06:59:39;8.70;99.90
37788;DHT22;23627;53.302;-6.362;2023-04-24T07:02:05;8.70;99.90
37788;DHT22;23627;53.302;-6.362;2023-04-24T07:04:31;8.70;99.90
37788;DHT22;23627;53.302;-6.362;2023-04-24T07:06:57;8.70;99.90
37788;DHT22;23627;53.302;-6.362;2023-04-24T07:09:24;8.70;99.90
37788;DHT22;23627;53.302;-6.362;2023-04-24T07:11:51;8.70;99.90
37788;DHT22;23627;53.302;-6.362;2023-04-24T07:14:17;8.70;99.90
37788;DHT22;23627;53.302;-6.362;2023-04-24T07:16:43;8.70;99.90
37788;DHT22;23627;53.302;-6.362;2023-04-24T07:19:11;8.70;99.90
37788;DHT22;23627;53.302;-6.362;2023-04-24T07:21:36;8.70;99.90
37788;DHT22;23627;53.302;-6.362;2023-04-24T07:24:02;8.70;99.90
37788;DHT22;23627;53.302;-6.362;2023-04-24T07:26:29;8.70;99.90
37788;DHT22;23627;53.302;-6.362;2023-04-24T07:28:55;8.70;99.90
37788;DHT22;23627;53.302;-6.362;2023-04-24T07:31:21;8.70;99.90
37788;DHT22;23627;53.302;-6.362;2023-04-24T07:33:47;8.80;99.90
37788;DHT22;23627;53.302;-6.362;2023-04-24T07:36:13;8.80;99.90
37788;DHT22;23627;53.302;-6.362;2023-04-24T07:38:42;8.80;99.90
37788;DHT22;23627;53.302;-6.362;2023-04-24T07:41:08;8.90;99.90
37788;DHT22;23627;53.302;-6.362;2023-04-24T07:43:35;8.90;99.90
37788;DHT22;23627;53.302;-6.362;2023-04-24T07:46:01;8.90;99.90
37788;DHT22;23627;53.302;-6.362;2023-04-24T07:48:27;8.90;99.90
37788;DHT22;23627;53.302;-6.362;2023-04-24T07:50:53;8.90;99.90
37788;DHT22;23627;53.302;-6.362;2023-04-24T07:53:19;8.90;99.90
37788;DHT22;23627;53.302;-6.362;2023-04-24T07:55:45;8.90;99.90
37788;DHT22;23627;53.302;-6.362;2023-04-24T07:58:11;8.90;99.90
37788;DHT22;23627;53.302;-6.362;2023-04-24T08:00:37;9.00;99.90
37788;DHT22;23627;53.302;-6.362;2023-04-24T08:03:02;9.00;99.90
37788;DHT22;23627;53.302;-6.362;2023-04-24T08:05:31;9.00;99.90
37788;DHT22;23627;53.302;-6.362;2023-04-24T08:07:58;9.00;99.90
37788;DHT22;23627;53.302;-6.362;2023-04-24T08:10:24;9.00;99.90
37788;DHT22;23627;53.302;-6.362;2023-04-24T08:12:49;9.10;99.90
37788;DHT22;23627;53.302;-6.362;2023-04-24T08:15:15;9.20;99.90
37788;DHT22;23627;53.302;-6.362;2023-04-24T08:17:41;9.30;99.90
37788;DHT22;23627;53.302;-6.362;2023-04-24T08:20:09;9.30;99.90
37788;DHT22;23627;53.302;-6.362;2023-04-24T08:22:42;9.40;99.90
37788;DHT22;23627;53.302;-6.362;2023-04-24T08:25:09;9.40;99.90
37788;DHT22;23627;53.302;-6.362;2023-04-24T08:27:36;9.40;99.90
37788;DHT22;23627;53.302;-6.362;2023-04-24T08:30:05;9.40;99.90
37788;DHT22;23627;53.302;-6.362;2023-04-24T08:32:31;9.50;99.90
37788;DHT22;23627;53.302;-6.362;2023-04-24T08:34:58;9.50;99.90
37788;DHT22;23627;53.302;-6.362;2023-04-24T08:37:26;9.60;99.90
37788;DHT22;23627;53.302;-6.362;2023-04-24T08:39:52;9.60;99.90
37788;DHT22;23627;53.302;-6.362;2023-04-24T08:42:19;9.60;99.90
37788;DHT22;23627;53.302;-6.362;2023-04-24T08:44:47;9.70;99.90
37788;DHT22;23627;53.302;-6.362;2023-04-24T08:47:15;9.80;99.90
37788;DHT22;23627;53.302;-6.362;2023-04-24T08:49:41;9.90;99.90
37788;DHT22;23627;53.302;-6.362;2023-04-24T08:52:08;9.90;99.90
37788;DHT22;23627;53.302;-6.362;2023-04-24T08:54:35;10.00;99.90
37788;DHT22;23627;53.302;-6.362;2023-04-24T08:57:02;10.10;99.90
37788;DHT22;23627;53.302;-6.362;2023-04-24T08:59:32;10.20;99.90
37788;DHT22;23627;53.302;-6.362;2023-04-24T09:01:59;10.20;99.90
37788;DHT22;23627;53.302;-6.362;2023-04-24T09:04:25;10.20;99.90
37788;DHT22;23627;53.302;-6.362;2023-04-24T09:06:57;10.20;99.90
37788;DHT22;23627;53.302;-6.362;2023-04-24T09:09:24;10.20;99.90
37788;DHT22;23627;53.302;-6.362;2023-04-24T09:11:51;10.20;99.90
37788;DHT22;23627;53.302;-6.362;2023-04-24T09:14:19;10.10;99.90
37788;DHT22;23627;53.302;-6.362;2023-04-24T09:16:46;10.00;99.90
37788;DHT22;23627;53.302;-6.362;2023-04-24T09:19:12;10.00;99.90
37788;DHT22;23627;53.302;-6.362;2023-04-24T09:21:38;9.90;99.90
37788;DHT22;23627;53.302;-6.362;2023-04-24T09:24:06;9.90;99.90
37788;DHT22;23627;53.302;-6.362;2023-04-24T09:26:35;9.90;99.90
37788;DHT22;23627;53.302;-6.362;2023-04-24T09:29:01;9.90;99.90
37788;DHT22;23627;53.302;-6.362;2023-04-24T09:31:29;10.00;99.90
37788;DHT22;23627;53.302;-6.362;2023-04-24T09:34:03;10.00;99.90
37788;DHT22;23627;53.302;-6.362;2023-04-24T09:36:36;10.10;99.90
37788;DHT22;23627;53.302;-6.362;2023-04-24T09:39:15;10.10;99.90
37788;DHT22;23627;53.302;-6.362;2023-04-24T09:41:48;10.20;99.90
37788;DHT22;23627;53.302;-6.362;2023-04-24T09:44:22;10.20;99.90
37788;DHT22;23627;53.302;-6.362;2023-04-24T09:46:54;10.30;99.90
37788;DHT22;23627;53.302;-6.362;2023-04-24T09:49:30;10.20;99.90
37788;DHT22;23627;53.302;-6.362;2023-04-24T09:52:10;10.20;99.90
37788;DHT22;23627;53.302;-6.362;2023-04-24T09:54:36;10.10;99.90
37788;DHT22;23627;53.302;-6.362;2023-04-24T09:57:02;10.10;99.90
37788;DHT22;23627;53.302;-6.362;2023-04-24T09:59:28;10.00;99.90
37788;DHT22;23627;53.302;-6.362;2023-04-24T10:01:55;10.10;99.90
37788;DHT22;23627;53.302;-6.362;2023-04-24T10:04:28;10.20;99.90
37788;DHT22;23627;53.302;-6.362;2023-04-24T10:06:55;10.30;99.90
37788;DHT22;23627;53.302;-6.362;2023-04-24T10:09:26;10.30;99.90
37788;DHT22;23627;53.302;-6.362;2023-04-24T10:11:53;10.40;99.90
37788;DHT22;23627;53.302;-6.362;2023-04-24T10:14:24;10.50;99.90
37788;DHT22;23627;53.302;-6.362;2023-04-24T10:16:53;10.50;99.90
37788;DHT22;23627;53.302;-6.362;2023-04-24T10:19:19;10.40;99.90
37788;DHT22;23627;53.302;-6.362;2023-04-24T10:21:45;10.40;99.90
37788;DHT22;23627;53.302;-6.362;2023-04-24T10:24:15;10.40;99.90
37788;DHT22;23627;53.302;-6.362;2023-04-24T10:26:42;10.50;99.90
37788;DHT22;23627;53.302;-6.362;2023-04-24T10:29:08;10.60;99.90
37788;DHT22;23627;53.302;-6.362;2023-04-24T10:31:36;10.60;99.90
37788;DHT22;23627;53.302;-6.362;2023-04-24T10:34:04;10.70;99.90
37788;DHT22;23627;53.302;-6.362;2023-04-24T10:36:31;10.70;99.90
37788;DHT22;23627;53.302;-6.362;2023-04-24T10:39:02;10.80;99.90
37788;DHT22;23627;53.302;-6.362;2023-04-24T10:41:30;11.00;99.90
37788;DHT22;23627;53.302;-6.362;2023-04-24T10:46:34;11.30;99.90
37788;DHT22;23627;53.302;-6.362;2023-04-24T10:49:29;11.30;99.90
37788;DHT22;23627;53.302;-6.362;2023-04-24T10:52:01;11.40;99.90
37788;DHT22;23627;53.302;-6.362;2023-04-24T10:54:29;11.40;99.90
37788;DHT22;23627;53.302;-6.362;2023-04-24T10:59:48;11.40;99.90
37788;DHT22;23627;53.302;-6.362;2023-04-24T11:02:18;11.40;99.90
37788;DHT22;23627;53.302;-6.362;2023-04-24T11:04:44;11.30;99.90
37788;DHT22;23627;53.302;-6.362;2023-04-24T11:07:13;11.40;99.90
37788;DHT22;23627;53.302;-6.362;2023-04-24T11:09:38;11.40;99.90
37788;DHT22;23627;53.302;-6.362;2023-04-24T11:12:10;11.40;99.90
37788;DHT22;23627;53.302;-6.362;2023-04-24T11:17:35;11.50;99.90
37788;DHT22;23627;53.302;-6.362;2023-04-24T11:20:10;11.60;99.90
37788;DHT22;23627;53.302;-6.362;2023-04-24T11:22:38;11.70;99.90
37788;DHT22;23627;53.302;-6.362;2023-04-24T11:25:09;11.70;99.90
37788;DHT22;23627;53.302;-6.362;2023-04-24T11:27:44;11.80;99.90
37788;DHT22;23627;53.302;-6.362;2023-04-24T11:30:12;12.00;99.90
37788;DHT22;23627;53.302;-6.362;2023-04-24T11:32:43;12.20;99.90
37788;DHT22;23627;53.302;-6.362;2023-04-24T11:35:17;12.30;99.90
37788;DHT22;23627;53.302;-6.362;2023-04-24T11:37:45;12.30;99.90
37788;DHT22;23627;53.302;-6.362;2023-04-24T11:40:13;12.30;99.90
37788;DHT22;23627;53.302;-6.362;2023-04-24T11:42:42;12.30;99.90
37788;DHT22;23627;53.302;-6.362;2023-04-24T11:45:13;12.40;99.90
37788;DHT22;23627;53.302;-6.362;2023-04-24T11:47:40;12.50;99.90
37788;DHT22;23627;53.302;-6.362;2023-04-24T11:50:08;12.60;99.90
37788;DHT22;23627;53.302;-6.362;2023-04-24T11:52:39;12.70;99.90
37788;DHT22;23627;53.302;-6.362;2023-04-24T11:55:08;12.70;99.90
37788;DHT22;23627;53.302;-6.362;2023-04-24T11:57:34;12.70;99.90
37788;DHT22;23627;53.302;-6.362;2023-04-24T12:00:03;12.70;99.90
37788;DHT22;23627;53.302;-6.362;2023-04-24T12:02:30;12.60;99.90
37788;DHT22;23627;53.302;-6.362;2023-04-24T12:04:56;12.60;99.90
37788;DHT22;23627;53.302;-6.362;2023-04-24T12:07:23;12.60;99.90
37788;DHT22;23627;53.302;-6.362;2023-04-24T12:09:59;12.60;99.90
37788;DHT22;23627;53.302;-6.362;2023-04-24T12:12:29;12.60;99.90
37788;DHT22;23627;53.302;-6.362;2023-04-24T12:14:56;12.50;99.90
37788;DHT22;23627;53.302;-6.362;2023-04-24T12:17:29;12.30;99.90
37788;DHT22;23627;53.302;-6.362;2023-04-24T12:20:04;12.10;99.90
37788;DHT22;23627;53.302;-6.362;2023-04-24T12:22:50;12.10;99.90
37788;DHT22;23627;53.302;-6.362;2023-04-24T12:25:19;12.10;99.90
37788;DHT22;23627;53.302;-6.362;2023-04-24T12:27:54;12.10;99.90
37788;DHT22;23627;53.302;-6.362;2023-04-24T12:30:20;12.10;99.90
37788;DHT22;23627;53.302;-6.362;2023-04-24T12:32:48;12.10;99.90
37788;DHT22;23627;53.302;-6.362;2023-04-24T12:35:19;12.20;99.90
37788;DHT22;23627;53.302;-6.362;2023-04-24T12:37:46;12.30;99.90
37788;DHT22;23627;53.302;-6.362;2023-04-24T12:40:13;12.20;99.90
37788;DHT22;23627;53.302;-6.362;2023-04-24T12:45:09;12.30;99.90
37788;DHT22;23627;53.302;-6.362;2023-04-24T12:47:37;12.40;99.90
37788;DHT22;23627;53.302;-6.362;2023-04-24T12:50:04;12.40;99.90
37788;DHT22;23627;53.302;-6.362;2023-04-24T12:52:30;12.30;99.90
37788;DHT22;23627;53.302;-6.362;2023-04-24T12:54:58;12.30;99.90
37788;DHT22;23627;53.302;-6.362;2023-04-24T12:57:24;12.30;99.90
37788;DHT22;23627;53.302;-6.362;2023-04-24T12:59:51;12.20;99.90
37788;DHT22;23627;53.302;-6.362;2023-04-24T13:02:17;12.20;99.90
37788;DHT22;23627;53.302;-6.362;2023-04-24T13:04:46;12.30;99.90
37788;DHT22;23627;53.302;-6.362;2023-04-24T13:07:13;12.20;99.90
37788;DHT22;23627;53.302;-6.362;2023-04-24T13:09:40;12.30;99.90
37788;DHT22;23627;53.302;-6.362;2023-04-24T13:12:07;12.40;99.90
37788;DHT22;23627;53.302;-6.362;2023-04-24T13:14:33;12.40;99.90
37788;DHT22;23627;53.302;-6.362;2023-04-24T13:16:59;12.40;99.90
37788;DHT22;23627;53.302;-6.362;2023-04-24T13:19:26;12.40;99.90
37788;DHT22;23627;53.302;-6.362;2023-04-24T13:21:56;12.40;99.90
37788;DHT22;23627;53.302;-6.362;2023-04-24T13:24:23;12.40;99.90
37788;DHT22;23627;53.302;-6.362;2023-04-24T13:26:54;12.40;99.90
37788;DHT22;23627;53.302;-6.362;2023-04-24T13:29:22;12.30;99.90
37788;DHT22;23627;53.302;-6.362;2023-04-24T13:31:50;12.30;99.90
37788;DHT22;23627;53.302;-6.362;2023-04-24T13:34:17;12.30;99.90
37788;DHT22;23627;53.302;-6.362;2023-04-24T13:36:43;12.20;99.90
37788;DHT22;23627;53.302;-6.362;2023-04-24T13:39:09;12.20;99.90
37788;DHT22;23627;53.302;-6.362;2023-04-24T13:41:36;12.20;99.90
37788;DHT22;23627;53.302;-6.362;2023-04-24T13:44:02;12.10;99.90
37788;DHT22;23627;53.302;-6.362;2023-04-24T13:46:28;12.10;99.90
37788;DHT22;23627;53.302;-6.362;2023-04-24T13:48:54;12.10;99.90
37788;DHT22;23627;53.302;-6.362;2023-04-24T13:51:20;12.10;99.90
37788;DHT22;23627;53.302;-6.362;2023-04-24T13:53:46;12.00;99.90
37788;DHT22;23627;53.302;-6.362;2023-04-24T13:56:11;12.00;99.90
37788;DHT22;23627;53.302;-6.362;2023-04-24T13:58:39;11.90;99.90
37788;DHT22;23627;53.302;-6.362;2023-04-24T14:01:05;11.90;99.90
37788;DHT22;23627;53.302;-6.362;2023-04-24T14:03:30;11.90;99.90
37788;DHT22;23627;53.302;-6.362;2023-04-24T14:05:56;12.00;99.90
37788;DHT22;23627;53.302;-6.362;2023-04-24T14:08:23;11.90;99.90
37788;DHT22;23627;53.302;-6.362;2023-04-24T14:10:49;12.00;99.90
37788;DHT22;23627;53.302;-6.362;2023-04-24T14:13:16;12.10;99.90
37788;DHT22;23627;53.302;-6.362;2023-04-24T14:15:42;12.00;99.90
37788;DHT22;23627;53.302;-6.362;2023-04-24T14:18:08;12.00;99.90
37788;DHT22;23627;53.302;-6.362;2023-04-24T14:20:33;11.90;99.90
37788;DHT22;23627;53.302;-6.362;2023-04-24T14:23:01;11.80;99.90
37788;DHT22;23627;53.302;-6.362;2023-04-24T14:25:28;11.80;99.90
37788;DHT22;23627;53.302;-6.362;2023-04-24T14:27:53;11.80;99.90
37788;DHT22;23627;53.302;-6.362;2023-04-24T14:30:19;11.70;99.90
37788;DHT22;23627;53.302;-6.362;2023-04-24T14:32:45;11.70;99.90
37788;DHT22;23627;53.302;-6.362;2023-04-24T14:35:11;11.70;99.90
37788;DHT22;23627;53.302;-6.362;2023-04-24T14:37:37;11.60;99.90
37788;DHT22;23627;53.302;-6.362;2023-04-24T14:40:03;11.60;99.90
37788;DHT22;23627;53.302;-6.362;2023-04-24T14:42:31;11.60;99.90
37788;DHT22;23627;53.302;-6.362;2023-04-24T14:44:57;11.50;99.90
37788;DHT22;23627;53.302;-6.362;2023-04-24T14:47:23;11.50;99.90
37788;DHT22;23627;53.302;-6.362;2023-04-24T14:49:49;11.50;99.90
37788;DHT22;23627;53.302;-6.362;2023-04-24T14:52:15;11.50;99.90
37788;DHT22;23627;53.302;-6.362;2023-04-24T14:54:42;11.50;99.90
37788;DHT22;23627;53.302;-6.362;2023-04-24T14:57:07;11.50;99.90
37788;DHT22;23627;53.302;-6.362;2023-04-24T14:59:33;11.50;99.90
37788;DHT22;23627;53.302;-6.362;2023-04-24T15:02:00;11.50;99.90
37788;DHT22;23627;53.302;-6.362;2023-04-24T15:04:26;11.50;99.90
37788;DHT22;23627;53.302;-6.362;2023-04-24T15:06:53;11.50;99.90
37788;DHT22;23627;53.302;-6.362;2023-04-24T15:09:23;11.50;99.90
37788;DHT22;23627;53.302;-6.362;2023-04-24T15:11:50;11.50;99.90
37788;DHT22;23627;53.302;-6.362;2023-04-24T15:14:17;11.50;99.90
37788;DHT22;23627;53.302;-6.362;2023-04-24T15:16:44;11.60;99.90
37788;DHT22;23627;53.302;-6.362;2023-04-24T15:19:10;11.70;99.90
37788;DHT22;23627;53.302;-6.362;2023-04-24T15:21:36;11.70;99.90
37788;DHT22;23627;53.302;-6.362;2023-04-24T15:24:04;11.60;99.90
37788;DHT22;23627;53.302;-6.362;2023-04-24T15:26:31;11.70;99.90
37788;DHT22;23627;53.302;-6.362;2023-04-24T15:28:57;11.80;99.90
37788;DHT22;23627;53.302;-6.362;2023-04-24T15:31:23;11.80;99.90